Strona główna
METAR-TAF:

METAR-TAF

Lotnisko :

Port lotniczy Montpellier

Montpellier, Francja

Szerokość geograficzna: 43-35N, Długość geograficzna: 003-58E, wysokość: 5 m

Aktualna obserwacja pogody

Raport powstał 37 minut temu, godzina 11:30 UTC
Wiatr 5 kt od południe
Temperatura 21°C
Wilgotność 38%
Ciśnienie 1023 hPa
Widzialność 10 km lub więcej
Brak chmur poniżej 1500 m i brak chmur cumulonimbus

METAR: LFMT 241130Z AUTO 19005KT CAVOK 21/06 Q1023 NOSIG

czas: 13:07 (12:07 UTC)

Prognoza

Raport powstał 4 godziny i 7 minut temu, godzina 08:00 UTC
Prognoza ważna od 24 godzina 09 UTC do 25 godzina 09 UTC
Wiatr 3 kt z kierunków zmiennych
Widzialność 10 km lub więcej
Brak chmur poniżej 1500 m i brak chmur cumulonimbus
Stopniowe zmiany
od 25 godzina 07 UTC do 25 godzina 09 UTC
Wiatr 12 kt od zachód

TAF: LFMT 240800Z 2409/2509 VRB03KT CAVOK BECMG 2507/2509 28012KT

Obserwacja i prognoza pogody dla ponad 4000 lotnisk (raport METAR i TAF).

Dostępne stacje oznaczono żółtymi i czerwonymi punktami na mapie.

Najedź kursorem aby zobaczyć nazwę stacji.

Kliknij aby zobaczyć obserwacje i prognozy pogody.

Aby zmienić mapę: kliknij na zielony przycisk z czarnym krzyżykiem, aby powiększyć; na zielony przycisk z myślnikiem, aby pomniejszyć; na zielone strzałki, aby przejść do map sąsiednich.


METAR-TAF: